Bliss, New York
Current Conditions -  °F | °C
As of 7:15 AM on Sunday 21 Dec 2014 (Local Time) from KOLE Reporting Station
Overcast Overcast  
Wind Chill: 23°   Ceiling: 800
Heat Index: 23°   Visibility: 10mi
Dew Point: 23°   Wind: 0mph
Humidity: 100%   Direction: NA
Pressure: 30.21"   Gusts: NA
Location:  42.58°N, 78.25°W
Report Text: KOLE 211215Z AUTO 00000KT 10SM OVC008 M05/M05 A3021 RMK AO2
Loading
Personal Weather Stations






























Interactive Weather Map New forecast layout! Learn more

10-Day Weather Forecast

Advertisements
Track Severe Weather on mobile